Standish, Maine
Current Conditions -  °F | °C
As of 11:06 AM on Monday 24 Nov 2014 (Local Time) from KPWM Reporting Station
Light Rain Light Rain  
Wind Chill: 14°   Ceiling: 400
Heat Index: 14°   Visibility: 1.7mi
Dew Point: 13°   Wind: 15mph
Humidity: 93%   Direction: 180°S
Pressure: 29.69"   Gusts: 29mph
Location:  43.74°N, 70.55°W
Report Text: KPWM 241606Z 18013G25KT 1 3/4SM -RA BR OVC004 14/13 A2969 RMK AO2 PK WND 17028/1555 P0000 T01390128
Loading
Personal Weather Stations






























Interactive Weather Map New forecast layout! Learn more

10-Day Weather Forecast

Advertisements
Track Severe Weather on mobile